Time;durP1;ratioP1;P1;durP2;ratioP2;P2;SDS_P1;SDS_P2;PMS_P1;PMS_P2;Temp;Humidity;BMP_temperature;BMP_pressure;BME280_temperature;BME280_humidity;BME280_pressure;Samples;Min_cycle;Max_cycle;Signal;HPM_P1;HPM_P2
2022/10/31 00:01:26;;;;;;;5.43;3.10;;;;;;;;;;5096864;28;20214;-86
2022/10/31 00:03:54;;;;;;;5.15;3.45;;;;;;;;;;5096883;28;20227;-86
2022/10/31 00:06:29;;;;;;;2.42;2.20;;;;;;;;;;5096692;28;20223;-86
2022/10/31 00:09:00;;;;;;;3.67;2.88;;;;;;;;;;5096346;28;20196;-87
2022/10/31 00:11:28;;;;;;;5.15;2.53;;;;;;;;;;5096552;28;20555;-86
2022/10/31 00:13:56;;;;;;;3.70;2.72;;;;;;;;;;5096214;28;20715;-86
2022/10/31 00:16:25;;;;;;;3.92;2.53;;;;;;;;;;5096879;28;20193;-86
2022/10/31 00:18:53;;;;;;;2.85;2.63;;;;;;;;;;5096528;28;20230;-86
2022/10/31 00:21:21;;;;;;;2.97;2.00;;;;;;;;;;5096357;28;20199;-87
2022/10/31 00:23:49;;;;;;;2.30;2.10;;;;;;;;;;5107779;28;20729;-86
2022/10/31 00:26:18;;;;;;;2.08;1.88;;;;;;;;;;5116858;28;20195;-87
2022/10/31 00:28:46;;;;;;;5.22;2.03;;;;;;;;;;5116694;28;20209;-86
2022/10/31 00:31:14;;;;;;;4.70;2.70;;;;;;;;;;5117231;28;20278;-86
2022/10/31 00:33:42;;;;;;;2.30;2.10;;;;;;;;;;5116674;28;20318;-86
2022/10/31 00:36:15;;;;;;;2.45;2.22;;;;;;;;;;5116408;28;20742;-86
2022/10/31 00:38:43;;;;;;;5.40;3.22;;;;;;;;;;5116439;28;20715;-86
2022/10/31 00:41:10;;;;;;;1.90;1.80;;;;;;;;;;5116367;28;20204;-86
2022/10/31 00:43:39;;;;;;;2.35;2.10;;;;;;;;;;5116554;28;20585;-86
2022/10/31 00:46:07;;;;;;;2.38;2.17;;;;;;;;;;5116287;28;20204;-87
2022/10/31 00:48:34;;;;;;;3.80;2.28;;;;;;;;;;5116028;28;20742;-86
2022/10/31 00:51:02;;;;;;;2.33;2.05;;;;;;;;;;5116324;28;20303;-86
2022/10/31 00:53:29;;;;;;;3.50;3.17;;;;;;;;;;5107120;28;20258;-87
2022/10/31 00:55:57;;;;;;;6.00;2.63;;;;;;;;;;5095851;28;20224;-86
2022/10/31 00:58:24;;;;;;;3.92;2.75;;;;;;;;;;5095472;28;20581;-86
2022/10/31 01:00:55;;;;;;;4.10;2.70;;;;;;;;;;5095933;28;20230;-86
2022/10/31 01:03:24;;;;;;;4.18;3.03;;;;;;;;;;5095584;28;20219;-86
2022/10/31 01:06:05;;;;;;;3.75;2.35;;;;;;;;;;5095007;28;20640;-86
2022/10/31 01:08:32;;;;;;;4.15;3.10;;;;;;;;;;5095529;28;20185;-87
2022/10/31 01:11:02;;;;;;;6.93;3.10;;;;;;;;;;5095521;28;20591;-87
2022/10/31 01:13:30;;;;;;;6.00;3.78;;;;;;;;;;5095447;28;20311;-86
2022/10/31 01:16:01;;;;;;;3.35;2.70;;;;;;;;;;5095503;28;20196;-86
2022/10/31 01:18:29;;;;;;;3.78;2.45;;;;;;;;;;5095192;28;20231;-87
2022/10/31 01:21:05;;;;;;;5.60;3.10;;;;;;;;;;5095378;28;20652;-86
2022/10/31 01:23:33;;;;;;;2.50;2.25;;;;;;;;;;5095416;28;20587;-86
2022/10/31 01:26:07;;;;;;;4.60;2.58;;;;;;;;;;5095353;28;20208;-86
2022/10/31 01:28:35;;;;;;;3.78;2.40;;;;;;;;;;5095085;28;20636;-87
2022/10/31 01:31:06;;;;;;;3.75;2.78;;;;;;;;;;5095182;28;20636;-86
2022/10/31 01:33:34;;;;;;;5.97;2.75;;;;;;;;;;5095150;28;20220;-87
2022/10/31 01:36:01;;;;;;;4.78;3.10;;;;;;;;;;5095050;28;20283;-86
2022/10/31 01:38:29;;;;;;;7.82;2.80;;;;;;;;;;5094558;28;20314;-86
2022/10/31 01:40:56;;;;;;;3.45;2.42;;;;;;;;;;5094961;28;20280;-87
2022/10/31 01:43:24;;;;;;;3.60;2.85;;;;;;;;;;5078849;28;20753;-86
2022/10/31 01:46:05;;;;;;;2.78;2.58;;;;;;;;;;5074592;28;20201;-86
2022/10/31 01:48:32;;;;;;;4.93;2.55;;;;;;;;;;5074205;28;20771;-86
2022/10/31 01:51:00;;;;;;;2.90;2.60;;;;;;;;;;5074412;28;20232;-86
2022/10/31 01:53:27;;;;;;;3.53;2.60;;;;;;;;;;5082722;28;20224;-86
2022/10/31 01:55:55;;;;;;;2.55;2.33;;;;;;;;;;5094433;28;20287;-86
2022/10/31 01:58:26;;;;;;;2.60;2.40;;;;;;;;;;5094528;28;20228;-86
2022/10/31 02:00:58;;;;;;;2.50;2.25;;;;;;;;;;5094326;28;20271;-87
2022/10/31 02:03:27;;;;;;;5.93;2.70;;;;;;;;;;5093528;28;20703;-86
2022/10/31 02:05:56;;;;;;;5.65;2.83;;;;;;;;;;5094626;28;20564;-84
2022/10/31 02:08:29;;;;;;;3.63;3.28;;;;;;;;;;5094256;28;20670;-86
2022/10/31 02:10:58;;;;;;;3.88;2.15;;;;;;;;;;5094385;28;20204;-86
2022/10/31 02:13:27;;;;;;;1.80;1.60;;;;;;;;;;5094242;28;20216;-87
2022/10/31 02:15:58;;;;;;;2.75;2.55;;;;;;;;;;5094042;28;20279;-86
2022/10/31 02:18:29;;;;;;;2.75;2.10;;;;;;;;;;5092976;28;20226;-86
2022/10/31 02:21:04;;;;;;;2.40;2.20;;;;;;;;;;5094142;28;20268;-86
2022/10/31 02:24:18;;;;;;;4.30;2.88;;;;;;;;;;5084929;28;20244;-87
2022/10/31 02:27:22;;;;;;;2.20;2.00;;;;;;;;;;5073688;28;20284;-86
2022/10/31 02:30:11;;;;;;;6.75;2.25;;;;;;;;;;5061053;28;20208;-87
2022/10/31 02:33:11;;;;;;;4.43;2.08;;;;;;;;;;5073699;28;20223;-86
2022/10/31 02:35:55;;;;;;;3.25;2.15;;;;;;;;;;5073497;28;20264;-86
2022/10/31 02:38:32;;;;;;;2.10;2.00;;;;;;;;;;5073457;28;20268;-86
2022/10/31 02:41:06;;;;;;;3.25;2.35;;;;;;;;;;5073391;28;20222;-86
2022/10/31 02:43:40;;;;;;;3.10;2.25;;;;;;;;;;5073424;28;20303;-86
2022/10/31 02:46:15;;;;;;;2.90;1.80;;;;;;;;;;5073628;28;20191;-86
2022/10/31 02:48:46;;;;;;;5.78;2.60;;;;;;;;;;5090365;28;20206;-86
2022/10/31 02:51:14;;;;;;;4.13;2.42;;;;;;;;;;5093917;28;20771;-86
2022/10/31 02:53:41;;;;;;;5.65;3.35;;;;;;;;;;5104005;28;20314;-86
2022/10/31 02:56:14;;;;;;;4.82;2.90;;;;;;;;;;5113865;28;20683;-86
2022/10/31 02:58:45;;;;;;;5.03;2.92;;;;;;;;;;5114162;28;20291;-86
2022/10/31 03:01:42;;;;;;;5.35;2.65;;;;;;;;;;5135872;22;20307;-81
2022/10/31 03:04:36;;;;;;;4.30;2.55;;;;;;;;;;5112992;28;20589;-81
2022/10/31 03:07:12;;;;;;;6.75;3.30;;;;;;;;;;5112817;28;20206;-81
2022/10/31 03:09:47;;;;;;;6.22;2.90;;;;;;;;;;5112803;28;20199;-81
2022/10/31 03:12:18;;;;;;;2.35;2.03;;;;;;;;;;5112838;28;20219;-82
2022/10/31 03:14:54;;;;;;;2.28;1.90;;;;;;;;;;5112775;28;20195;-81
2022/10/31 03:17:26;;;;;;;2.72;2.33;;;;;;;;;;5112790;28;20206;-81
2022/10/31 03:19:56;;;;;;;2.25;2.05;;;;;;;;;;5112537;28;20318;-81
2022/10/31 03:22:26;;;;;;;2.83;2.47;;;;;;;;;;5112982;28;20215;-82
2022/10/31 03:24:54;;;;;;;2.88;2.08;;;;;;;;;;5092082;28;20678;-82
2022/10/31 03:27:24;;;;;;;4.43;2.70;;;;;;;;;;5092586;28;20200;-84
2022/10/31 03:29:53;;;;;;;4.05;2.85;;;;;;;;;;5091647;28;20664;-81
2022/10/31 03:32:24;;;;;;;5.47;3.47;;;;;;;;;;5092372;28;20575;-81
2022/10/31 03:34:54;;;;;;;4.85;3.67;;;;;;;;;;5092378;28;20204;-81
2022/10/31 03:37:22;;;;;;;3.70;2.25;;;;;;;;;;5092738;28;20660;-82
2022/10/31 03:39:50;;;;;;;2.35;2.10;;;;;;;;;;5092007;28;20581;-81
2022/10/31 03:42:21;;;;;;;5.85;4.50;;;;;;;;;;5095072;28;20713;-82
2022/10/31 03:44:56;;;;;;;4.55;3.13;;;;;;;;;;5112436;28;20203;-83
2022/10/31 03:47:24;;;;;;;3.95;2.95;;;;;;;;;;5112533;28;20569;-81
2022/10/31 03:49:52;;;;;;;4.05;3.65;;;;;;;;;;5112282;28;20195;-83
2022/10/31 03:52:27;;;;;;;2.30;2.10;;;;;;;;;;5112278;28;20610;-82
2022/10/31 03:54:58;;;;;;;2.63;2.00;;;;;;;;;;5102998;28;20192;-81
2022/10/31 03:57:30;;;;;;;1.95;1.85;;;;;;;;;;5112834;28;20585;-81
2022/10/31 04:00:01;;;;;;;2.85;2.33;;;;;;;;;;5112113;28;20219;-81
2022/10/31 04:02:32;;;;;;;3.92;2.78;;;;;;;;;;5111783;28;20223;-80
2022/10/31 04:05:00;;;;;;;5.30;3.20;;;;;;;;;;5112247;28;20213;-82
2022/10/31 04:07:33;;;;;;;2.88;2.25;;;;;;;;;;5112169;28;20203;-83
2022/10/31 04:10:03;;;;;;;2.20;2.00;;;;;;;;;;5112108;28;20199;-81
2022/10/31 04:12:32;;;;;;;3.80;2.83;;;;;;;;;;5112027;28;20715;-81
2022/10/31 04:14:59;;;;;;;6.53;3.38;;;;;;;;;;5112396;28;20207;-81
2022/10/31 04:17:30;;;;;;;4.85;3.15;;;;;;;;;;5112146;28;20686;-81
2022/10/31 04:20:01;;;;;;;3.58;3.28;;;;;;;;;;5111940;28;20228;-82
2022/10/31 04:22:29;;;;;;;3.47;2.95;;;;;;;;;;5112569;28;20230;-81
2022/10/31 04:24:57;;;;;;;3.83;3.40;;;;;;;;;;5112964;28;20301;-81
2022/10/31 04:27:24;;;;;;;3.90;2.80;;;;;;;;;;5113176;28;20211;-81
2022/10/31 04:29:52;;;;;;;3.45;3.15;;;;;;;;;;5111813;28;20279;-81
2022/10/31 04:32:19;;;;;;;3.30;3.00;;;;;;;;;;5123427;28;20320;-80
2022/10/31 04:34:47;;;;;;;3.30;3.00;;;;;;;;;;5128112;28;20195;-81
2022/10/31 04:37:14;;;;;;;3.72;2.70;;;;;;;;;;5127464;28;20237;-83
2022/10/31 04:39:43;;;;;;;5.57;2.70;;;;;;;;;;5127905;28;20247;-82
2022/10/31 04:42:10;;;;;;;7.30;3.88;;;;;;;;;;5130249;28;20311;-81
2022/10/31 04:44:38;;;;;;;4.72;3.42;;;;;;;;;;5130572;27;20234;-82
2022/10/31 04:47:06;;;;;;;6.45;3.97;;;;;;;;;;5121179;27;20656;-82
2022/10/31 04:49:33;;;;;;;10.68;4.82;;;;;;;;;;5120434;28;20224;-83
2022/10/31 04:52:01;;;;;;;5.35;4.55;;;;;;;;;;5119680;28;20735;-83
2022/10/31 04:54:28;;;;;;;5.68;5.05;;;;;;;;;;5119776;28;20267;-83
2022/10/31 04:56:57;;;;;;;9.40;6.45;;;;;;;;;;5120033;28;20295;-83
2022/10/31 04:59:24;;;;;;;10.50;6.47;;;;;;;;;;5119346;28;20290;-82
2022/10/31 05:01:52;;;;;;;10.70;8.02;;;;;;;;;;5119923;28;20306;-83
2022/10/31 05:04:19;;;;;;;13.63;8.10;;;;;;;;;;5120313;28;20206;-83
2022/10/31 05:06:47;;;;;;;6.25;5.15;;;;;;;;;;5120135;28;20697;-82
2022/10/31 05:09:14;;;;;;;6.05;5.18;;;;;;;;;;5119465;28;20643;-82
2022/10/31 05:11:41;;;;;;;5.80;4.50;;;;;;;;;;5118977;28;20220;-81
2022/10/31 05:14:10;;;;;;;3.70;3.30;;;;;;;;;;5119857;28;20643;-82
2022/10/31 05:16:38;;;;;;;3.50;3.17;;;;;;;;;;5119657;28;20263;-82
2022/10/31 05:19:05;;;;;;;3.85;3.53;;;;;;;;;;5119064;28;20200;-82
2022/10/31 05:21:33;;;;;;;3.13;2.83;;;;;;;;;;5119198;28;20255;-82
2022/10/31 05:24:00;;;;;;;2.45;2.25;;;;;;;;;;5119319;28;20286;-83
2022/10/31 05:26:28;;;;;;;2.40;2.20;;;;;;;;;;5119345;28;20234;-82
2022/10/31 05:28:55;;;;;;;3.50;2.58;;;;;;;;;;5118523;28;20642;-82
2022/10/31 05:31:24;;;;;;;5.30;3.60;;;;;;;;;;5118675;27;20714;-82
2022/10/31 05:33:51;;;;;;;4.35;3.88;;;;;;;;;;5118082;28;20286;-82
2022/10/31 05:36:19;;;;;;;4.75;3.45;;;;;;;;;;5119170;27;20322;-82
2022/10/31 05:38:46;;;;;;;6.47;3.80;;;;;;;;;;5118531;28;20665;-82
2022/10/31 05:41:14;;;;;;;4.57;3.75;;;;;;;;;;5117610;28;20223;-79
2022/10/31 05:43:41;;;;;;;7.47;4.18;;;;;;;;;;5115394;28;20203;-79
2022/10/31 05:46:08;;;;;;;4.05;3.60;;;;;;;;;;5115435;28;20200;-79
2022/10/31 05:48:37;;;;;;;8.45;4.40;;;;;;;;;;5114753;28;20291;-79
2022/10/31 05:51:05;;;;;;;5.80;4.22;;;;;;;;;;5114569;28;20219;-78
2022/10/31 05:53:32;;;;;;;7.05;3.92;;;;;;;;;;5115385;28;20314;-79
2022/10/31 05:56:00;;;;;;;4.70;4.25;;;;;;;;;;5114965;28;20199;-79
2022/10/31 05:58:27;;;;;;;3.05;2.75;;;;;;;;;;5114424;28;20206;-79
2022/10/31 06:00:55;;;;;;;5.32;4.20;;;;;;;;;;5114869;28;20219;-78
2022/10/31 06:03:22;;;;;;;6.28;5.00;;;;;;;;;;5114639;28;20206;-79
2022/10/31 06:05:51;;;;;;;8.15;6.05;;;;;;;;;;5115064;27;20202;-78
2022/10/31 06:08:18;;;;;;;6.50;5.88;;;;;;;;;;5114354;28;20196;-79
2022/10/31 06:10:46;;;;;;;11.32;8.52;;;;;;;;;;5114589;28;20575;-79
2022/10/31 06:13:13;;;;;;;13.48;9.73;;;;;;;;;;5114964;28;20206;-78
2022/10/31 06:15:41;;;;;;;9.68;7.25;;;;;;;;;;5114350;28;20591;-79
2022/10/31 06:18:10;;;;;;;13.88;8.63;;;;;;;;;;5114560;28;20206;-78
2022/10/31 06:20:37;;;;;;;10.43;8.25;;;;;;;;;;5114557;28;20254;-79
2022/10/31 06:23:06;;;;;;;9.35;7.55;;;;;;;;;;5114789;28;20652;-78
2022/10/31 06:25:34;;;;;;;7.20;5.88;;;;;;;;;;5114536;28;20585;-79
2022/10/31 06:28:01;;;;;;;7.90;6.85;;;;;;;;;;5114469;28;20219;-79
2022/10/31 06:30:29;;;;;;;11.43;7.57;;;;;;;;;;5113997;28;20294;-81
2022/10/31 06:33:02;;;;;;;11.98;8.82;;;;;;;;;;5114891;28;20215;-81
2022/10/31 06:35:29;;;;;;;8.70;6.97;;;;;;;;;;5114752;28;20204;-81
2022/10/31 06:37:57;;;;;;;10.07;7.55;;;;;;;;;;5114998;27;20230;-83
2022/10/31 06:40:26;;;;;;;7.57;5.82;;;;;;;;;;5114059;28;20754;-80
2022/10/31 06:43:00;;;;;;;5.10;4.53;;;;;;;;;;5114194;28;20223;-80
2022/10/31 06:45:28;;;;;;;5.18;4.68;;;;;;;;;;5114381;28;20203;-80
2022/10/31 06:47:57;;;;;;;5.35;4.68;;;;;;;;;;5108705;28;20192;-80
2022/10/31 06:50:25;;;;;;;5.80;4.72;;;;;;;;;;5113270;28;20286;-80
2022/10/31 06:52:53;;;;;;;4.13;3.72;;;;;;;;;;5112352;28;20925;-80
2022/10/31 06:55:22;;;;;;;7.63;6.40;;;;;;;;;;5104690;28;20192;-80
2022/10/31 06:57:54;;;;;;;6.07;4.90;;;;;;;;;;5113720;28;20637;-81
2022/10/31 07:00:22;;;;;;;5.93;4.07;;;;;;;;;;5113555;28;20667;-80
2022/10/31 07:02:56;;;;;;;5.57;4.60;;;;;;;;;;5112448;28;20229;-81
2022/10/31 07:05:24;;;;;;;4.65;4.20;;;;;;;;;;5109687;27;20199;-80
2022/10/31 07:07:54;;;;;;;5.70;4.45;;;;;;;;;;5093149;28;20683;-80
2022/10/31 07:10:22;;;;;;;8.68;5.53;;;;;;;;;;5093062;28;20215;-81
2022/10/31 07:12:49;;;;;;;10.43;8.70;;;;;;;;;;5093241;28;20601;-80
2022/10/31 07:15:18;;;;;;;11.52;9.10;;;;;;;;;;5093044;28;20210;-80
2022/10/31 07:17:45;;;;;;;7.43;6.57;;;;;;;;;;5094997;28;20597;-80
2022/10/31 07:20:13;;;;;;;5.55;5.05;;;;;;;;;;5112430;28;20206;-80
2022/10/31 07:22:41;;;;;;;4.95;4.00;;;;;;;;;;5113141;28;20347;-80
2022/10/31 07:25:09;;;;;;;6.30;5.13;;;;;;;;;;5112677;28;20298;-80
2022/10/31 07:27:37;;;;;;;7.03;5.78;;;;;;;;;;5112874;28;20200;-80
2022/10/31 07:30:07;;;;;;;5.18;4.07;;;;;;;;;;5112732;28;20291;-79
2022/10/31 07:32:46;;;;;;;5.22;3.70;;;;;;;;;;5112916;28;20220;-83
2022/10/31 07:35:16;;;;;;;4.82;4.40;;;;;;;;;;5113306;28;20278;-79
2022/10/31 07:37:43;;;;;;;5.55;4.22;;;;;;;;;;5112857;28;20664;-80
2022/10/31 07:40:12;;;;;;;5.45;4.38;;;;;;;;;;5112873;28;20267;-80
2022/10/31 07:42:42;;;;;;;4.55;3.25;;;;;;;;;;5112489;28;20671;-80
2022/10/31 07:45:12;;;;;;;4.00;3.47;;;;;;;;;;5112467;28;20227;-79
2022/10/31 07:47:40;;;;;;;4.22;3.83;;;;;;;;;;5111977;28;20203;-78
2022/10/31 07:50:11;;;;;;;3.28;2.97;;;;;;;;;;5111954;28;20209;-78
2022/10/31 07:52:38;;;;;;;4.32;3.92;;;;;;;;;;5112453;28;20219;-78
2022/10/31 07:55:07;;;;;;;5.32;3.50;;;;;;;;;;5112233;28;20202;-79
2022/10/31 07:57:36;;;;;;;4.13;2.60;;;;;;;;;;5112077;28;20207;-78
2022/10/31 08:00:04;;;;;;;2.75;2.50;;;;;;;;;;5111806;28;20313;-79
2022/10/31 08:02:32;;;;;;;3.50;2.78;;;;;;;;;;5112029;28;20228;-78
2022/10/31 08:05:01;;;;;;;3.35;3.05;;;;;;;;;;5111973;28;20195;-79
2022/10/31 08:07:30;;;;;;;3.03;2.83;;;;;;;;;;5112371;28;20207;-79
2022/10/31 08:09:58;;;;;;;2.97;2.60;;;;;;;;;;5111687;28;20610;-79
2022/10/31 08:12:25;;;;;;;2.83;2.50;;;;;;;;;;5112360;28;20226;-79
2022/10/31 08:14:53;;;;;;;5.72;2.97;;;;;;;;;;5112843;28;20295;-80
2022/10/31 08:17:20;;;;;;;2.85;2.65;;;;;;;;;;5116428;28;20199;-80
2022/10/31 08:19:48;;;;;;;2.55;2.35;;;;;;;;;;5116162;28;20300;-80
2022/10/31 08:22:15;;;;;;;2.40;2.13;;;;;;;;;;5115627;27;20314;-79
2022/10/31 08:24:44;;;;;;;3.70;3.35;;;;;;;;;;5116170;28;20223;-80
2022/10/31 08:27:11;;;;;;;3.53;3.05;;;;;;;;;;5116471;28;20206;-81
2022/10/31 08:29:39;;;;;;;3.22;2.88;;;;;;;;;;5115904;28;20353;-79
2022/10/31 08:32:06;;;;;;;3.88;2.95;;;;;;;;;;5116287;28;20212;-81
2022/10/31 08:34:34;;;;;;;4.30;3.28;;;;;;;;;;5116606;28;20210;-80
2022/10/31 08:37:01;;;;;;;6.68;3.90;;;;;;;;;;5116474;28;20196;-80
2022/10/31 08:39:28;;;;;;;5.20;4.00;;;;;;;;;;5116318;28;20208;-81
2022/10/31 08:41:57;;;;;;;5.00;3.60;;;;;;;;;;5113219;28;20326;-80
2022/10/31 08:44:25;;;;;;;3.45;3.13;;;;;;;;;;5096723;28;20207;-80
2022/10/31 08:46:52;;;;;;;8.25;4.65;;;;;;;;;;5097575;28;20295;-80
2022/10/31 08:49:19;;;;;;;5.57;4.47;;;;;;;;;;5112675;28;20203;-80
2022/10/31 08:51:49;;;;;;;5.45;3.30;;;;;;;;;;5116855;28;20219;-80
2022/10/31 08:54:16;;;;;;;4.93;4.45;;;;;;;;;;5109739;28;20291;-80
2022/10/31 08:56:44;;;;;;;4.50;3.80;;;;;;;;;;5099306;28;20202;-79
2022/10/31 08:59:12;;;;;;;9.30;3.72;;;;;;;;;;5096715;28;20204;-80
2022/10/31 09:01:40;;;;;;;5.55;4.97;;;;;;;;;;5103811;22;20712;-84
2022/10/31 09:04:08;;;;;;;9.70;5.85;;;;;;;;;;5097752;28;20344;-84
2022/10/31 09:06:35;;;;;;;7.05;5.10;;;;;;;;;;5098258;28;20287;-85
2022/10/31 09:09:04;;;;;;;4.43;3.75;;;;;;;;;;5096984;28;20177;-85
2022/10/31 09:11:32;;;;;;;5.05;4.35;;;;;;;;;;5097366;28;20209;-84
2022/10/31 09:14:02;;;;;;;5.53;4.97;;;;;;;;;;5097626;28;20268;-85
2022/10/31 09:16:33;;;;;;;7.55;5.18;;;;;;;;;;5097692;28;20231;-85
2022/10/31 09:19:01;;;;;;;5.15;3.72;;;;;;;;;;5096971;28;20287;-85
2022/10/31 09:21:28;;;;;;;4.07;3.67;;;;;;;;;;5097168;28;20293;-85
2022/10/31 09:23:56;;;;;;;3.53;3.22;;;;;;;;;;5098073;28;20209;-85
2022/10/31 09:26:25;;;;;;;5.38;3.67;;;;;;;;;;5097697;28;20232;-86
2022/10/31 09:28:53;;;;;;;6.75;3.67;;;;;;;;;;5097741;28;20283;-84
2022/10/31 09:31:20;;;;;;;5.80;3.47;;;;;;;;;;5098599;28;20253;-86
2022/10/31 09:33:49;;;;;;;5.22;4.72;;;;;;;;;;5098393;28;20192;-86
2022/10/31 09:36:17;;;;;;;3.97;3.58;;;;;;;;;;5098652;28;20291;-86
2022/10/31 09:38:46;;;;;;;4.30;3.90;;;;;;;;;;5098070;28;20227;-87
2022/10/31 09:41:20;;;;;;;4.50;3.95;;;;;;;;;;5097436;28;20220;-86
2022/10/31 09:43:54;;;;;;;4.07;3.65;;;;;;;;;;5079206;28;20215;-86
2022/10/31 09:46:28;;;;;;;6.82;4.22;;;;;;;;;;5076697;28;20618;-87
2022/10/31 09:49:31;;;;;;;5.78;4.53;;;;;;;;;;5078086;28;20224;-87
2022/10/31 09:52:03;;;;;;;4.68;4.03;;;;;;;;;;5077923;28;20224;-86
2022/10/31 09:54:35;;;;;;;4.78;4.38;;;;;;;;;;5095803;28;20311;-85
2022/10/31 09:57:03;;;;;;;5.13;4.13;;;;;;;;;;5098106;28;20215;-86
2022/10/31 09:59:35;;;;;;;7.80;5.57;;;;;;;;;;5097701;28;20592;-84
2022/10/31 10:02:06;;;;;;;4.65;4.15;;;;;;;;;;5097416;28;20234;-86
2022/10/31 10:04:42;;;;;;;5.53;4.75;;;;;;;;;;5094301;28;20226;-85
2022/10/31 10:07:18;;;;;;;9.55;6.90;;;;;;;;;;5098363;28;20215;-87
2022/10/31 10:09:46;;;;;;;9.63;6.15;;;;;;;;;;5098848;28;20559;-83
2022/10/31 10:12:20;;;;;;;7.57;4.45;;;;;;;;;;5099316;28;20223;-83
2022/10/31 10:15:02;;;;;;;5.22;4.70;;;;;;;;;;5097318;28;20659;-84
2022/10/31 10:17:41;;;;;;;9.80;6.88;;;;;;;;;;5097865;28;20206;-86
2022/10/31 10:20:36;;;;;;;8.82;6.50;;;;;;;;;;5097478;28;20567;-87
2022/10/31 10:23:25;;;;;;;7.65;5.75;;;;;;;;;;5090785;28;20311;-87
2022/10/31 10:26:06;;;;;;;8.35;6.88;;;;;;;;;;5074705;28;20184;-87
2022/10/31 10:28:38;;;;;;;7.70;6.53;;;;;;;;;;5075365;28;20221;-87
2022/10/31 10:31:10;;;;;;;11.73;7.95;;;;;;;;;;5075296;28;20213;-85
2022/10/31 10:33:41;;;;;;;9.88;8.05;;;;;;;;;;5076334;28;20211;-85
2022/10/31 10:36:15;;;;;;;10.82;8.13;;;;;;;;;;5076474;28;20177;-84
2022/10/31 10:38:51;;;;;;;8.82;7.15;;;;;;;;;;5075752;28;20268;-84
2022/10/31 10:41:22;;;;;;;7.50;6.10;;;;;;;;;;5077043;28;20220;-85
2022/10/31 10:43:50;;;;;;;7.60;6.22;;;;;;;;;;5076828;28;20569;-85
2022/10/31 10:49:19;;;;;;;11.65;9.00;;;;;;;;;;5090191;28;20285;-86
2022/10/31 10:51:51;;;;;;;7.72;5.70;;;;;;;;;;5096782;28;20255;-85
2022/10/31 10:54:40;;;;;;;7.03;6.07;;;;;;;;;;5098211;28;20238;-87
2022/10/31 10:57:33;;;;;;;6.00;5.32;;;;;;;;;;5096545;28;20188;-85
2022/10/31 11:00:12;;;;;;;4.93;4.43;;;;;;;;;;5073596;28;20289;-86
2022/10/31 11:02:39;;;;;;;4.95;3.97;;;;;;;;;;5073782;28;20235;-87
2022/10/31 11:05:20;;;;;;;7.82;5.78;;;;;;;;;;5074886;28;20264;-86
2022/10/31 11:07:49;;;;;;;7.68;6.53;;;;;;;;;;5076502;28;20367;-87
2022/10/31 11:10:17;;;;;;;5.20;4.70;;;;;;;;;;5075784;28;20287;-84
2022/10/31 11:12:57;;;;;;;6.15;5.22;;;;;;;;;;5076475;28;20657;-85
2022/10/31 11:15:26;;;;;;;7.10;5.47;;;;;;;;;;5075925;28;20219;-84
2022/10/31 11:17:56;;;;;;;5.40;4.90;;;;;;;;;;5074391;28;20565;-85
2022/10/31 11:20:34;;;;;;;4.28;3.97;;;;;;;;;;5073305;28;20295;-86
2022/10/31 11:23:16;;;;;;;8.20;4.78;;;;;;;;;;5078781;28;20257;-87
2022/10/31 11:25:51;;;;;;;4.70;4.30;;;;;;;;;;5094548;28;20208;-85
2022/10/31 11:28:19;;;;;;;9.38;5.35;;;;;;;;;;5093676;28;20214;-89
2022/10/31 11:30:49;;;;;;;4.50;4.10;;;;;;;;;;5093435;28;20277;-89
2022/10/31 11:33:22;;;;;;;5.10;4.07;;;;;;;;;;5093681;28;20283;-85
2022/10/31 11:35:50;;;;;;;4.60;4.20;;;;;;;;;;5092250;28;20224;-86
2022/10/31 11:39:00;;;;;;;5.30;4.80;;;;;;;;;;5094525;28;20273;-91
2022/10/31 11:41:38;;;;;;;4.43;4.03;;;;;;;;;;5093237;28;20216;-89
2022/10/31 11:44:14;;;;;;;4.60;4.20;;;;;;;;;;5092961;28;20542;-89
2022/10/31 11:46:46;;;;;;;4.82;4.38;;;;;;;;;;5092151;28;20191;-85
2022/10/31 11:49:18;;;;;;;6.85;5.13;;;;;;;;;;5092856;28;20284;-85
2022/10/31 11:51:51;;;;;;;5.22;4.68;;;;;;;;;;5096933;28;20226;-90
2022/10/31 11:54:26;;;;;;;4.95;4.07;;;;;;;;;;5096636;28;20577;-87
2022/10/31 11:56:53;;;;;;;3.70;3.40;;;;;;;;;;5096772;28;20180;-86
2022/10/31 11:59:28;;;;;;;4.38;3.55;;;;;;;;;;5077288;28;20211;-87
2022/10/31 12:01:58;;;;;;;4.60;4.20;;;;;;;;;;5076012;28;20220;-87
2022/10/31 12:04:35;;;;;;;4.38;3.97;;;;;;;;;;5076283;28;20223;-87
2022/10/31 12:07:03;;;;;;;6.93;5.43;;;;;;;;;;5075950;28;20272;-88
2022/10/31 12:09:36;;;;;;;4.75;4.32;;;;;;;;;;5075618;28;20253;-87
2022/10/31 12:12:40;;;;;;;3.80;3.40;;;;;;;;;;5076931;28;20308;-86
2022/10/31 12:15:32;;;;;;;5.85;4.85;;;;;;;;;;5077007;28;20184;-88
2022/10/31 12:18:19;;;;;;;5.78;5.22;;;;;;;;;;5080465;28;20242;-88
2022/10/31 12:20:59;;;;;;;5.65;5.13;;;;;;;;;;5096997;28;20200;-87
2022/10/31 12:23:48;;;;;;;6.95;5.40;;;;;;;;;;5095662;28;20623;-87
2022/10/31 12:26:40;;;;;;;5.13;4.57;;;;;;;;;;5096000;28;20754;-89
2022/10/31 12:29:28;;;;;;;5.85;4.95;;;;;;;;;;5096801;28;20207;-90
2022/10/31 12:32:13;;;;;;;7.50;4.88;;;;;;;;;;5096894;28;20693;-90
2022/10/31 12:35:14;;;;;;;3.72;3.42;;;;;;;;;;5097005;28;20675;-89
2022/10/31 12:37:56;;;;;;;4.13;3.58;;;;;;;;;;5096962;28;20199;-89
2022/10/31 12:40:41;;;;;;;6.15;5.32;;;;;;;;;;5096824;28;20268;-90
2022/10/31 12:43:24;;;;;;;5.35;4.88;;;;;;;;;;5096804;28;20216;-89
2022/10/31 12:45:55;;;;;;;4.88;4.18;;;;;;;;;;5096334;28;20296;-88
2022/10/31 12:48:46;;;;;;;6.65;5.55;;;;;;;;;;5095946;28;20283;-87
2022/10/31 12:51:22;;;;;;;6.93;5.57;;;;;;;;;;5096215;28;20228;-89
2022/10/31 12:54:18;;;;;;;8.73;7.60;;;;;;;;;;5096055;28;20292;-86
2022/10/31 12:56:55;;;;;;;9.80;6.13;;;;;;;;;;5096065;28;20681;-88
2022/10/31 12:59:31;;;;;;;9.30;6.63;;;;;;;;;;5095790;28;20184;-89
2022/10/31 13:02:03;;;;;;;13.15;7.90;;;;;;;;;;5095076;28;20231;-88
2022/10/31 13:04:41;;;;;;;5.95;5.35;;;;;;;;;;5096079;28;20209;-89
2022/10/31 13:07:14;;;;;;;6.15;5.55;;;;;;;;;;5096052;28;20181;-89
2022/10/31 13:09:49;;;;;;;7.15;4.90;;;;;;;;;;5095676;28;20208;-86
2022/10/31 13:12:21;;;;;;;8.05;5.60;;;;;;;;;;5095497;28;20215;-86
2022/10/31 13:14:55;;;;;;;5.07;4.57;;;;;;;;;;5095675;28;20211;-87
2022/10/31 13:17:29;;;;;;;7.10;5.90;;;;;;;;;;5095752;28;20192;-86
2022/10/31 13:20:17;;;;;;;7.35;6.35;;;;;;;;;;5075019;28;20615;-87
2022/10/31 13:22:55;;;;;;;4.72;4.20;;;;;;;;;;5077679;28;20227;-88
2022/10/31 13:25:26;;;;;;;5.47;3.47;;;;;;;;;;5094921;28;20215;-88
2022/10/31 13:27:58;;;;;;;3.83;3.38;;;;;;;;;;5095279;28;20223;-88
2022/10/31 13:30:30;;;;;;;4.15;3.80;;;;;;;;;;5095046;28;20287;-88
2022/10/31 13:33:02;;;;;;;4.10;3.63;;;;;;;;;;5094907;28;20201;-87
2022/10/31 13:35:37;;;;;;;6.80;4.43;;;;;;;;;;5095429;28;20192;-88
2022/10/31 13:38:14;;;;;;;7.85;5.97;;;;;;;;;;5095404;28;20267;-87
2022/10/31 13:40:49;;;;;;;6.38;5.78;;;;;;;;;;5095182;28;20184;-89
2022/10/31 13:43:29;;;;;;;5.50;5.00;;;;;;;;;;5095255;28;20188;-89
2022/10/31 13:45:58;;;;;;;5.72;5.05;;;;;;;;;;5094674;28;20307;-89
2022/10/31 13:48:42;;;;;;;6.10;5.55;;;;;;;;;;5094836;28;20291;-88
2022/10/31 13:51:11;;;;;;;6.68;5.75;;;;;;;;;;5094922;28;20277;-88
2022/10/31 13:54:01;;;;;;;5.10;4.57;;;;;;;;;;5094888;28;20231;-89
2022/10/31 13:56:31;;;;;;;4.00;3.63;;;;;;;;;;5094924;28;20273;-89
2022/10/31 13:59:20;;;;;;;4.40;4.00;;;;;;;;;;5094406;28;20200;-89
2022/10/31 14:01:52;;;;;;;4.75;4.32;;;;;;;;;;5094476;28;20259;-89
2022/10/31 14:04:23;;;;;;;6.30;5.18;;;;;;;;;;5094762;28;20692;-89
2022/10/31 14:06:58;;;;;;;4.57;4.18;;;;;;;;;;5094673;28;20295;-89
2022/10/31 14:09:32;;;;;;;7.25;5.13;;;;;;;;;;5094699;28;20198;-88
2022/10/31 14:12:05;;;;;;;5.60;4.82;;;;;;;;;;5094537;28;20298;-89
2022/10/31 14:14:42;;;;;;;6.60;5.97;;;;;;;;;;5094309;28;20191;-88
2022/10/31 14:17:23;;;;;;;5.40;4.82;;;;;;;;;;5094957;28;20633;-88
2022/10/31 14:20:38;;;;;;;6.05;4.60;;;;;;;;;;5094686;28;20639;-88
2022/10/31 14:23:40;;;;;;;6.22;4.65;;;;;;;;;;5094344;28;20202;-89
2022/10/31 14:26:34;;;;;;;4.47;4.07;;;;;;;;;;5094683;28;20212;-89
2022/10/31 14:29:19;;;;;;;4.93;3.85;;;;;;;;;;5094378;28;20222;-89
2022/10/31 14:31:54;;;;;;;5.22;3.85;;;;;;;;;;5106723;22;20219;-88
2022/10/31 14:34:27;;;;;;;8.05;4.75;;;;;;;;;;5116457;28;20551;-87
2022/10/31 14:37:17;;;;;;;4.53;3.60;;;;;;;;;;5115497;28;20271;-87
2022/10/31 14:39:56;;;;;;;7.30;3.13;;;;;;;;;;5115991;28;20199;-85
2022/10/31 14:42:43;;;;;;;5.05;4.55;;;;;;;;;;5116898;28;20867;-87
2022/10/31 14:45:22;;;;;;;3.83;3.53;;;;;;;;;;5115624;28;20674;-85
2022/10/31 14:48:09;;;;;;;6.20;4.32;;;;;;;;;;5116687;28;20328;-85
2022/10/31 14:50:48;;;;;;;5.45;4.20;;;;;;;;;;5115849;28;20242;-87
2022/10/31 14:53:22;;;;;;;5.20;4.70;;;;;;;;;;5109032;28;20220;-86
2022/10/31 14:55:52;;;;;;;6.95;5.13;;;;;;;;;;5095111;28;20223;-86
2022/10/31 14:58:24;;;;;;;8.80;4.95;;;;;;;;;;5105905;28;20234;-86
2022/10/31 15:00:57;;;;;;;5.40;4.85;;;;;;;;;;5116061;28;20612;-85
2022/10/31 15:03:29;;;;;;;7.75;4.47;;;;;;;;;;5116223;28;20270;-85
2022/10/31 15:06:01;;;;;;;5.10;4.60;;;;;;;;;;5115354;28;20295;-84
2022/10/31 15:08:35;;;;;;;6.43;3.90;;;;;;;;;;5115829;28;20301;-85
2022/10/31 15:11:12;;;;;;;4.35;3.90;;;;;;;;;;5115380;28;20180;-85
2022/10/31 15:13:47;;;;;;;5.75;3.63;;;;;;;;;;5115117;28;20184;-86
2022/10/31 15:16:18;;;;;;;3.40;3.10;;;;;;;;;;5115728;28;20638;-84
2022/10/31 15:18:57;;;;;;;4.00;3.60;;;;;;;;;;5116057;28;20210;-85